Time;durP1;ratioP1;P1;durP2;ratioP2;P2;SDS_P1;SDS_P2;PMS_P1;PMS_P2;Temp;Humidity;BMP_temperature;BMP_pressure;BME280_temperature;BME280_humidity;BME280_pressure;Samples;Min_cycle;Max_cycle;Signal;HPM_P1;HPM_P2
2022/03/17 00:00:07;;;;;;;41.65;25.95;;;;;;;11.89;56.96;101741.97;5063597;28;20419;-81
2022/03/17 00:02:51;;;;;;;44.08;27.10;;;;;;;11.92;57.02;101755.84;5092623;28;20500;-80
2022/03/17 00:05:37;;;;;;;44.90;26.67;;;;;;;11.81;57.21;101748.13;5078361;28;20036;-80
2022/03/17 00:08:22;;;;;;;41.75;26.83;;;;;;;11.89;57.13;101750.97;5082521;28;20044;-79
2022/03/17 00:11:06;;;;;;;46.05;26.98;;;;;;;11.74;57.44;101753.13;5074043;28;20048;-81
2022/03/17 00:13:51;;;;;;;32.90;22.23;;;;;;;11.86;57.02;101754.28;5061320;28;20036;-81
2022/03/17 00:16:36;;;;;;;34.83;21.23;;;;;;;11.80;57.45;101752.75;5065021;28;20048;-82
2022/03/17 00:19:21;;;;;;;;;;;;;;;11.83;57.19;101741.28;5062578;28;20040;-82
2022/03/17 00:22:08;;;;;;;42.53;25.50;;;;;;;11.92;56.72;101747.66;5073735;28;20384;-80
2022/03/17 00:24:54;;;;;;;45.85;28.20;;;;;;;11.74;57.15;101744.97;5073577;28;20036;-82
2022/03/17 00:27:39;;;;;;;52.67;29.23;;;;;;;11.59;57.40;101745.97;5073656;28;20037;-81
2022/03/17 00:30:25;;;;;;;35.55;21.27;;;;;;;11.59;58.05;101745.97;5059449;28;20045;-82
2022/03/17 00:33:11;;;;;;;48.05;28.77;;;;;;;11.37;58.88;101753.97;5043364;28;20037;-82
2022/03/17 00:35:56;;;;;;;42.67;28.38;;;;;;;11.06;59.72;101748.13;5053178;28;20049;-82
2022/03/17 00:38:40;;;;;;;41.97;23.65;;;;;;;11.22;59.40;101752.28;5053737;28;20045;-80
2022/03/17 00:41:25;;;;;;;51.78;31.10;;;;;;;11.18;59.57;101756.66;5043518;28;20044;-80
2022/03/17 00:44:23;;;;;;;44.22;28.23;;;;;;;10.94;59.99;101745.84;5142648;27;20562;-73
2022/03/17 00:47:09;;;;;;;43.97;27.27;;;;;;;11.15;59.57;101758.06;5109683;28;20047;-74
2022/03/17 00:49:53;;;;;;;59.05;24.25;;;;;;;11.05;59.85;101754.69;5109499;28;20058;-74
2022/03/17 00:52:39;;;;;;;48.35;24.25;;;;;;;11.16;59.46;101758.91;5109198;28;20051;-74
2022/03/17 00:55:24;;;;;;;52.55;28.55;;;;;;;11.34;58.66;101754.53;5106968;28;20051;-74
2022/03/17 00:58:08;;;;;;;39.47;20.80;;;;;;;11.48;57.94;101756.22;5109407;28;20059;-74
2022/03/17 01:00:53;;;;;;;34.63;20.08;;;;;;;11.66;57.35;101751.88;5109305;28;20050;-74
2022/03/17 01:03:39;;;;;;;34.78;21.63;;;;;;;11.74;56.93;101762.13;5108447;28;20058;-75
2022/03/17 01:06:24;;;;;;;47.10;29.48;;;;;;;11.69;56.92;101758.63;5093533;28;20051;-74
2022/03/17 01:09:09;;;;;;;38.72;22.83;;;;;;;11.59;56.96;101754.97;5088850;28;20521;-75
2022/03/17 01:11:55;;;;;;;35.60;21.10;;;;;;;11.43;57.54;101752.75;5088973;28;20387;-74
2022/03/17 01:14:40;;;;;;;42.40;27.25;;;;;;;11.33;57.96;101753.72;5099956;28;20406;-74
2022/03/17 01:17:25;;;;;;;35.65;22.00;;;;;;;11.39;57.46;101749.03;5109387;28;20046;-74
2022/03/17 01:20:11;;;;;;;49.40;28.25;;;;;;;11.30;57.97;101746.16;5108970;28;20046;-73
2022/03/17 01:22:56;;;;;;;47.92;28.40;;;;;;;11.36;57.34;101745.00;5108598;28;20062;-74
2022/03/17 01:25:41;;;;;;;36.45;21.45;;;;;;;11.35;57.61;101739.81;5108944;28;20047;-74
2022/03/17 01:28:26;;;;;;;36.20;21.40;;;;;;;11.26;58.38;101730.72;5108973;28;20051;-74
2022/03/17 01:31:13;;;;;;;34.40;21.40;;;;;;;11.21;58.16;101728.88;5108741;28;20051;-73
2022/03/17 01:33:59;;;;;;;49.88;29.45;;;;;;;11.21;58.32;101739.75;5110355;28;20414;-74
2022/03/17 01:36:44;;;;;;;49.33;28.33;;;;;;;11.24;57.92;101739.16;5129231;28;20054;-74
2022/03/17 01:39:29;;;;;;;49.63;28.05;;;;;;;11.22;58.53;101733.22;5129014;28;20050;-74
2022/03/17 01:42:13;;;;;;;43.83;22.73;;;;;;;11.31;58.11;101734.16;5132458;27;20517;-74
2022/03/17 01:44:58;;;;;;;35.72;23.27;;;;;;;11.17;58.04;101735.19;5114774;27;20403;-74
2022/03/17 01:47:44;;;;;;;;;;;;;;;11.13;58.38;101729.50;5108922;28;20043;-74
2022/03/17 01:50:29;;;;;;;38.10;24.35;;;;;;;11.12;58.25;101725.97;5112023;28;19912;-73
2022/03/17 01:53:14;;;;;;;37.33;23.63;;;;;;;11.24;57.97;101722.81;5110314;28;20055;-74
2022/03/17 01:56:00;;;;;;;45.25;25.75;;;;;;;11.30;57.99;101729.81;5073773;28;20052;-73
2022/03/17 01:58:45;;;;;;;53.92;34.05;;;;;;;11.32;58.44;101715.91;5093429;28;20501;-73
2022/03/17 02:01:30;;;;;;;50.88;27.45;;;;;;;11.27;58.87;101719.53;5094753;28;20051;-73
2022/03/17 02:04:15;;;;;;;51.00;28.42;;;;;;;11.29;58.62;101719.22;5094284;28;20051;-73
2022/03/17 02:07:00;;;;;;;49.10;28.70;;;;;;;11.24;58.72;101716.56;5074388;28;20063;-74
2022/03/17 02:09:45;;;;;;;45.83;25.92;;;;;;;11.25;58.85;101723.63;5074220;28;20044;-73
2022/03/17 02:15:34;;;;;;;54.80;33.08;;;;;;;11.29;58.67;101720.03;5094081;28;20043;-73
2022/03/17 02:18:20;;;;;;;53.45;33.25;;;;;;;11.07;59.39;101717.88;5086806;28;20051;-73
2022/03/17 02:21:05;;;;;;;58.50;36.53;;;;;;;11.17;59.66;101716.97;5088619;28;20407;-73
2022/03/17 02:26:57;;;;;;;54.10;33.50;;;;;;;10.95;60.04;101725.69;5094141;28;20506;-74
2022/03/17 02:29:41;;;;;;;59.15;36.10;;;;;;;10.82;60.36;101723.69;5094123;28;20047;-75
2022/03/17 02:32:26;;;;;;;49.03;28.73;;;;;;;10.77;60.55;101723.75;5096994;28;20051;-73
2022/03/17 02:35:15;;;;;;;43.30;27.70;;;;;;;10.70;60.44;101717.88;5094776;28;20055;-74
2022/03/17 02:38:04;;;;;;;60.92;32.72;;;;;;;10.88;60.17;101718.97;5093165;28;20070;-75
2022/03/17 02:40:52;;;;;;;55.15;35.75;;;;;;;10.92;59.93;101714.59;5093787;28;20043;-75
2022/03/17 02:43:38;;;;;;;60.80;35.03;;;;;;;10.93;59.86;101717.00;5093866;28;20122;-74
2022/03/17 02:46:24;;;;;;;58.78;35.08;;;;;;;11.06;59.37;101721.72;5098016;28;20051;-72
2022/03/17 02:49:09;;;;;;;64.32;37.45;;;;;;;11.01;59.68;101719.09;5093518;28;20047;-74
2022/03/17 02:51:54;;;;;;;45.30;28.75;;;;;;;11.13;59.60;101718.63;5073660;28;20404;-72
2022/03/17 02:54:39;;;;;;;45.75;26.38;;;;;;;11.19;59.46;101727.53;5072450;28;20431;-73
2022/03/17 02:57:24;;;;;;;39.65;25.30;;;;;;;11.23;59.39;101728.56;5090865;28;20407;-74
2022/03/17 03:00:10;;;;;;;43.70;26.92;;;;;;;11.04;60.27;101723.13;5093486;28;20051;-73
2022/03/17 03:02:55;;;;;;;57.50;34.78;;;;;;;11.21;59.98;101723.44;5090503;28;20039;-73
2022/03/17 03:05:40;;;;;;;48.97;27.48;;;;;;;11.24;59.39;101727.47;5095883;28;20510;-73
2022/03/17 03:08:26;;;;;;;43.88;26.45;;;;;;;11.34;59.20;101719.13;5073341;28;20522;-73
2022/03/17 03:11:11;;;;;;;65.07;36.90;;;;;;;11.34;59.42;101721.88;5073250;28;20067;-73
2022/03/17 03:13:56;;;;;;;56.47;35.25;;;;;;;11.32;59.73;101724.09;5073083;28;20052;-73
2022/03/17 03:16:41;;;;;;;61.20;32.03;;;;;;;11.20;59.99;101721.81;5076474;28;20051;-73
2022/03/17 03:19:26;;;;;;;;;;;;;;;11.18;60.69;101723.19;5093409;28;20402;-73
2022/03/17 03:22:11;;;;;;;68.55;37.97;;;;;;;11.13;60.98;101724.88;5093362;28;19912;-73
2022/03/17 03:24:57;;;;;;;53.63;30.67;;;;;;;10.94;61.39;101721.34;5093181;28;20047;-74
2022/03/17 03:27:44;;;;;;;66.57;38.63;;;;;;;10.92;61.42;101726.25;5093182;28;20047;-72
2022/03/17 03:30:29;;;;;;;72.47;41.33;;;;;;;10.94;61.51;101728.69;5093025;28;20410;-72
2022/03/17 03:33:14;;;;;;;56.35;32.63;;;;;;;10.71;62.29;101727.66;5093202;28;20037;-75
2022/03/17 03:39:02;;;;;;;68.45;40.72;;;;;;;10.81;61.85;101724.00;5092709;28;20498;-74
2022/03/17 03:41:47;;;;;;;55.05;31.42;;;;;;;10.72;62.08;101723.81;5092993;28;20040;-73
2022/03/17 03:44:32;;;;;;;51.63;30.08;;;;;;;10.65;62.67;101718.75;5098619;28;20048;-75
2022/03/17 03:47:18;;;;;;;51.88;31.60;;;;;;;10.60;62.77;101712.53;5092817;28;20409;-75
2022/03/17 03:50:04;;;;;;;68.22;40.83;;;;;;;10.63;62.62;101717.41;5092639;28;20044;-73
2022/03/17 03:52:49;;;;;;;73.45;40.88;;;;;;;10.65;62.41;101717.94;5092725;28;20042;-74
2022/03/17 03:55:33;;;;;;;63.25;34.25;;;;;;;10.59;62.54;101727.25;5092763;28;20411;-74
2022/03/17 03:58:18;;;;;;;56.92;31.65;;;;;;;10.66;62.14;101722.28;5092576;28;20050;-73
2022/03/17 04:01:03;;;;;;;77.78;43.38;;;;;;;10.55;62.46;101732.47;5098239;28;20051;-73
2022/03/17 04:03:49;;;;;;;60.28;33.47;;;;;;;10.49;62.94;101720.00;5092568;28;20044;-73
2022/03/17 04:06:41;;;;;;;70.38;40.70;;;;;;;10.51;62.60;101725.19;5092466;28;20044;-74
2022/03/17 04:09:28;;;;;;;79.28;43.22;;;;;;;10.46;62.88;101725.22;5098263;28;20063;-75
2022/03/17 04:12:14;;;;;;;81.32;44.90;;;;;;;10.48;62.99;101733.91;5092248;28;20048;-73
2022/03/17 04:14:58;;;;;;;76.43;43.08;;;;;;;10.45;62.73;101731.75;5094033;28;20050;-76
2022/03/17 04:17:43;;;;;;;63.83;34.92;;;;;;;10.13;64.06;101725.00;5092298;28;20039;-73
2022/03/17 04:20:29;;;;;;;68.10;35.33;;;;;;;10.18;64.09;101733.13;5092005;28;20044;-72
2022/03/17 04:23:13;;;;;;;63.33;34.95;;;;;;;10.40;63.15;101731.81;5092222;28;20495;-73
2022/03/17 04:25:58;;;;;;;65.68;34.15;;;;;;;10.40;63.17;101735.34;5092228;28;20047;-72
2022/03/17 04:28:43;;;;;;;69.47;34.05;;;;;;;10.14;64.39;101733.97;5092328;28;20401;-73
2022/03/17 04:31:29;;;;;;;76.07;42.50;;;;;;;10.23;64.34;101743.94;5077715;28;20495;-73
2022/03/17 04:34:14;;;;;;;88.05;42.88;;;;;;;10.42;63.52;101737.75;5071948;28;20043;-73
2022/03/17 04:36:58;;;;;;;63.33;36.38;;;;;;;10.64;62.62;101744.31;5074766;28;20419;-73
2022/03/17 04:39:43;;;;;;;;;;;;;;;10.70;62.58;101739.63;5072204;28;20040;-73
2022/03/17 04:42:28;;;;;;;72.80;39.95;;;;;;;10.80;63.03;101744.94;5071589;28;19912;-74
2022/03/17 04:45:13;;;;;;;72.22;40.92;;;;;;;10.94;62.35;101745.03;5076292;28;20048;-73
2022/03/17 04:47:58;;;;;;;;;;;;;;;10.69;61.97;101748.88;5072429;28;20044;-73
2022/03/17 04:50:43;;;;;;;73.57;40.88;;;;;;;10.31;63.69;101752.59;5071611;28;20368;-73
2022/03/17 04:53:27;;;;;;;55.30;33.67;;;;;;;10.29;63.55;101759.13;5077420;28;20032;-73
2022/03/17 04:56:16;;;;;;;58.03;33.80;;;;;;;10.39;63.65;101757.38;5076768;28;20414;-76
2022/03/17 04:59:01;;;;;;;83.35;43.67;;;;;;;10.48;63.58;101758.38;5071597;28;20040;-72
2022/03/17 05:01:46;;;;;;;;;;;;;;;10.45;63.34;101758.97;5072362;28;20052;-73
2022/03/17 05:04:32;;;;;;;71.30;41.10;;;;;;;10.32;63.42;101755.00;5074404;28;19916;-72
2022/03/17 05:07:16;;;;;;;75.38;42.28;;;;;;;10.09;64.31;101755.75;5073587;28;20047;-73
2022/03/17 05:10:01;;;;;;;57.83;34.35;;;;;;;10.03;65.07;101756.88;5071406;28;20044;-73
2022/03/17 05:12:46;;;;;;;51.90;31.60;;;;;;;10.37;64.26;101762.28;5071650;28;20051;-73
2022/03/17 05:15:31;;;;;;;64.70;34.00;;;;;;;10.35;64.14;101768.03;5071649;28;20036;-73
2022/03/17 05:18:17;;;;;;;75.90;41.53;;;;;;;10.53;63.56;101766.47;5071050;28;20504;-72
2022/03/17 05:21:04;;;;;;;52.75;33.20;;;;;;;10.49;63.96;101777.13;5086875;22;20051;31
2022/03/17 05:23:49;;;;;;;72.50;42.88;;;;;;;10.51;63.77;101774.13;5028769;28;20049;-83
2022/03/17 05:26:34;;;;;;;55.05;32.17;;;;;;;10.58;64.03;101775.38;5036451;28;20520;-83
2022/03/17 05:29:19;;;;;;;70.38;43.80;;;;;;;10.62;63.81;101775.59;5037870;28;20049;-83
2022/03/17 05:32:04;;;;;;;82.57;43.75;;;;;;;10.84;63.08;101780.53;5037108;28;20044;-82
2022/03/17 05:34:49;;;;;;;53.20;33.17;;;;;;;10.91;63.25;101773.66;5047601;28;20041;-84
2022/03/17 05:37:34;;;;;;;75.97;45.42;;;;;;;10.91;62.51;101787.25;5043299;28;20034;-83
2022/03/17 05:40:21;;;;;;;63.00;34.60;;;;;;;10.88;63.18;101784.28;5045735;28;20037;-84
2022/03/17 05:43:07;;;;;;;76.65;43.40;;;;;;;10.90;63.23;101784.81;5040883;28;20041;-84
2022/03/17 05:45:52;;;;;;;78.18;45.05;;;;;;;10.85;63.55;101790.31;5034777;28;20049;-83
2022/03/17 05:48:40;;;;;;;;;;;;;;;10.92;63.05;101791.56;5040860;28;20049;-83
2022/03/17 05:51:24;;;;;;;74.25;43.38;;;;;;;10.86;63.48;101791.94;5051972;28;19912;-84
2022/03/17 05:54:10;;;;;;;56.85;34.35;;;;;;;10.90;63.60;101790.25;5039279;28;20036;-84
2022/03/17 05:56:54;;;;;;;53.05;32.70;;;;;;;10.93;63.57;101790.47;5045792;28;20049;-84
2022/03/17 05:59:41;;;;;;;59.38;34.20;;;;;;;10.92;63.32;101786.13;5041509;28;20044;-82
2022/03/17 06:02:25;;;;;;;76.03;45.65;;;;;;;10.93;63.45;101792.38;5029305;28;20038;-83
2022/03/17 06:05:14;;;;;;;70.13;35.65;;;;;;;10.96;63.40;101798.06;5035997;28;20409;-83
2022/03/17 06:08:02;;;;;;;74.25;45.42;;;;;;;10.93;63.23;101798.63;5038565;28;20045;-84
2022/03/17 06:10:47;;;;;;;76.20;45.03;;;;;;;11.03;63.20;101795.78;5021622;28;20053;-84
2022/03/17 06:13:31;;;;;;;92.88;46.28;;;;;;;11.11;62.90;101802.50;5043471;28;20041;-84
2022/03/17 06:16:16;;;;;;;58.50;35.70;;;;;;;11.12;62.52;101813.09;5038384;28;20044;-83
2022/03/17 06:19:01;;;;;;;61.13;33.13;;;;;;;11.00;62.84;101801.84;5027737;28;20046;-84
2022/03/17 06:21:46;;;;;;;;;;;;;;;11.06;63.13;101814.28;5043016;28;20527;-83
2022/03/17 06:24:32;;;;;;;74.95;44.25;;;;;;;11.06;62.89;101817.00;5043145;28;19917;-83
2022/03/17 06:27:17;;;;;;;77.63;47.10;;;;;;;11.02;63.12;101818.66;5042223;28;20040;-82
2022/03/17 06:30:07;;;;;;;79.53;47.28;;;;;;;11.10;63.12;101820.75;5049399;28;20517;-83
2022/03/17 06:32:52;;;;;;;87.18;47.50;;;;;;;11.18;62.87;101822.00;5042094;28;20064;-82
2022/03/17 06:35:37;;;;;;;58.13;33.85;;;;;;;11.09;62.88;101819.13;5043334;28;20030;-81
2022/03/17 06:38:22;;;;;;;64.60;37.65;;;;;;;11.17;62.47;101816.88;5045700;28;20049;-81
2022/03/17 06:41:07;;;;;;;56.95;34.80;;;;;;;11.33;62.05;101813.63;5039265;28;20044;-84
2022/03/17 06:43:51;;;;;;;91.60;45.17;;;;;;;11.25;62.34;101814.31;5038852;28;20034;-85
2022/03/17 06:46:36;;;;;;;92.32;46.40;;;;;;;11.28;62.48;101821.06;5039272;28;20066;-86
2022/03/17 06:49:23;;;;;;;69.78;36.75;;;;;;;11.33;62.03;101821.00;5033617;28;20056;-87
2022/03/17 06:52:08;;;;;;;85.65;48.58;;;;;;;11.38;62.13;101829.09;5050572;28;20052;-85
2022/03/17 06:54:53;;;;;;;66.10;35.58;;;;;;;11.36;62.36;101829.41;5053441;28;20335;-86
2022/03/17 06:57:38;;;;;;;87.05;45.80;;;;;;;11.29;62.69;101834.38;5061284;28;20052;-86
2022/03/17 07:00:23;;;;;;;75.00;45.30;;;;;;;11.31;62.72;101834.09;5045623;28;20053;-86
2022/03/17 07:03:07;;;;;;;150.77;39.90;;;;;;;11.36;62.65;101839.50;5054882;28;20056;-85
2022/03/17 07:05:52;;;;;;;95.95;55.53;;;;;;;11.12;63.62;101840.31;5052098;28;20045;-85
2022/03/17 07:08:37;;;;;;;;;;;;;;;11.26;63.30;101839.63;5050706;28;20053;-84
2022/03/17 07:11:22;;;;;;;84.10;44.08;;;;;;;11.38;62.75;101834.53;5037712;28;19916;-85
2022/03/17 07:14:06;;;;;;;;;;;;;;;11.49;62.40;101841.47;5043264;28;20517;-86
2022/03/17 07:16:51;;;;;;;77.63;41.00;;;;;;;11.64;61.95;101841.25;5033590;28;19912;-86
2022/03/17 07:19:36;;;;;;;74.15;42.92;;;;;;;11.56;61.92;101848.19;5044144;28;20040;-86
2022/03/17 07:22:20;;;;;;;62.38;34.55;;;;;;;11.55;61.34;101848.47;5043067;28;20073;-82
2022/03/17 07:25:06;;;;;;;95.00;44.17;;;;;;;11.58;60.94;101853.31;5042587;28;20041;-83
2022/03/17 07:27:51;;;;;;;72.95;43.25;;;;;;;11.62;61.24;101846.22;5042003;28;20049;-84
2022/03/17 07:30:36;;;;;;;63.10;34.70;;;;;;;11.74;60.87;101851.22;5038801;28;20510;-85
2022/03/17 07:33:21;;;;;;;;;;;;;;;11.74;60.49;101852.03;5039211;28;20044;-85
2022/03/17 07:36:05;;;;;;;72.50;40.67;;;;;;;11.71;60.74;101857.25;5039430;28;19916;-85
2022/03/17 07:38:50;;;;;;;84.15;44.22;;;;;;;11.79;60.18;101864.78;5039792;28;20052;-85
2022/03/17 07:41:35;;;;;;;74.10;43.03;;;;;;;11.81;60.04;101857.94;5043313;28;20056;-86
2022/03/17 07:44:20;;;;;;;;;;;;;;;11.85;60.61;101861.69;5041599;28;20442;-84
2022/03/17 07:47:23;;;;;;;71.65;43.08;;;;;;;11.94;60.47;101856.38;5039169;28;20373;-84
2022/03/17 07:50:08;;;;;;;104.22;44.88;;;;;;;11.93;60.15;101860.22;5037301;28;20049;-86
2022/03/17 07:52:53;;;;;;;82.25;45.88;;;;;;;12.17;59.71;101860.13;5044830;28;20029;-85
2022/03/17 07:55:38;;;;;;;68.35;34.88;;;;;;;11.91;60.88;101873.34;5042556;28;20429;-85
2022/03/17 07:58:24;;;;;;;;;;;;;;;12.28;59.08;101867.03;5047793;28;20048;-84
2022/03/17 08:01:09;;;;;;;;;;;;;;;12.23;59.41;101864.38;5034135;28;19912;-84
2022/03/17 08:03:54;;;;;;;74.65;43.40;;;;;;;12.22;59.48;101862.75;5040228;28;19917;-84
2022/03/17 08:06:41;;;;;;;79.65;45.00;;;;;;;11.93;60.35;101877.41;5039963;28;20044;-83
2022/03/17 08:09:27;;;;;;;87.63;46.22;;;;;;;12.21;59.68;101877.50;5044649;28;20441;-84
2022/03/17 08:12:12;;;;;;;117.78;48.53;;;;;;;12.11;59.77;101872.19;5048348;28;20421;-83
2022/03/17 08:14:57;;;;;;;;;;;;;;;11.77;61.47;101878.72;5048834;28;20038;-85
2022/03/17 08:17:42;;;;;;;88.40;47.00;;;;;;;12.17;59.97;101880.00;5047599;28;19913;-83
2022/03/17 08:20:26;;;;;;;60.22;34.75;;;;;;;12.16;59.68;101880.31;5039867;28;20052;-81
2022/03/17 08:23:15;;;;;;;62.38;37.03;;;;;;;12.21;59.40;101881.03;5038001;28;20033;-84
2022/03/17 08:26:01;;;;;;;78.95;46.40;;;;;;;12.23;59.78;101880.75;5037034;28;20041;-85
2022/03/17 08:28:47;;;;;;;76.05;45.05;;;;;;;12.22;59.83;101876.38;5044512;28;20049;-85
2022/03/17 08:31:34;;;;;;;;;;;;;;;12.36;59.64;101883.50;5046715;28;20046;-83
2022/03/17 08:34:19;;;;;;;93.97;49.70;;;;;;;12.32;59.76;101881.69;5046044;28;19913;-85
2022/03/17 08:37:04;;;;;;;88.55;49.45;;;;;;;12.40;59.21;101884.53;5029365;28;20041;-85
2022/03/17 08:39:49;;;;;;;68.65;39.08;;;;;;;12.47;59.59;101888.78;5047362;28;20045;-85
2022/03/17 08:42:34;;;;;;;85.18;49.13;;;;;;;12.41;59.19;101885.34;5025630;28;20053;-85
2022/03/17 08:51:27;;;;;;;85.38;48.42;;;;;;;12.82;59.01;101910.81;5023971;28;20092;-86
2022/03/17 08:54:12;;;;;;;84.35;48.20;;;;;;;12.91;57.78;101904.63;5033496;28;20042;-83
2022/03/17 08:57:01;;;;;;;72.55;36.03;;;;;;;12.82;58.52;101904.53;5039853;28;20048;-82
2022/03/17 08:59:46;;;;;;;86.93;48.67;;;;;;;13.04;58.21;101901.13;5040261;28;20521;-81
2022/03/17 09:02:32;;;;;;;87.22;46.30;;;;;;;13.11;58.25;101912.44;5042085;28;20422;-81
2022/03/17 09:05:17;;;;;;;;;;;;;;;13.07;58.08;101912.25;5047715;28;20041;-82
2022/03/17 09:08:06;;;;;;;84.13;45.88;;;;;;;13.40;58.08;101925.84;5055404;28;19913;-82
2022/03/17 09:10:50;;;;;;;69.07;40.92;;;;;;;13.81;55.65;101917.59;5060006;28;20045;-83
2022/03/17 09:13:35;;;;;;;61.42;34.13;;;;;;;13.66;55.94;101921.47;5049295;28;20049;-81
2022/03/17 09:16:20;;;;;;;71.53;41.90;;;;;;;13.44;55.23;101919.47;5040308;28;20041;-81
2022/03/17 09:19:05;;;;;;;;;;;;;;;13.56;54.77;101924.44;5055010;28;20048;-78
2022/03/17 09:21:50;;;;;;;68.45;40.83;;;;;;;13.38;54.51;101922.59;5040043;28;19921;-78
2022/03/17 09:24:34;;;;;;;70.18;41.95;;;;;;;13.34;54.63;101916.13;5045719;28;20056;-78
2022/03/17 09:27:22;;;;;;;56.53;32.00;;;;;;;13.27;55.07;101922.00;5040819;28;20041;-78
2022/03/17 09:30:08;;;;;;;76.63;41.90;;;;;;;13.17;55.44;101922.19;5025552;28;20045;-78
2022/03/17 09:32:54;;;;;;;56.40;32.50;;;;;;;13.04;55.36;101922.97;5036831;28;20490;-78
2022/03/17 09:35:39;;;;;;;67.63;42.47;;;;;;;13.07;55.64;101922.34;5036398;28;20044;-78
2022/03/17 09:38:24;;;;;;;74.65;41.30;;;;;;;13.06;56.04;101920.72;5036334;28;20045;-78
2022/03/17 09:41:24;;;;;;;76.25;41.45;;;;;;;13.08;55.77;101919.34;5035963;28;20502;-79
2022/03/17 09:44:09;;;;;;;77.80;42.22;;;;;;;13.05;56.34;101928.16;5040123;28;20050;-78
2022/03/17 09:46:59;;;;;;;65.07;41.15;;;;;;;13.12;55.83;101930.47;5024570;28;20517;-78
2022/03/17 09:49:48;;;;;;;75.38;40.70;;;;;;;12.88;56.84;101936.09;5036509;28;20053;-78
2022/03/17 09:52:42;;;;;;;76.18;42.35;;;;;;;13.11;56.01;101937.03;5038202;28;20502;-78
2022/03/17 09:55:27;;;;;;;68.00;39.88;;;;;;;13.15;55.87;101927.97;5036149;28;20413;-78
2022/03/17 09:58:12;;;;;;;52.97;31.95;;;;;;;13.18;55.75;101930.09;5036278;28;20413;-78
2022/03/17 10:00:59;;;;;;;;;;;;;;;13.52;54.68;101943.34;5041226;28;20041;-78
2022/03/17 10:03:44;;;;;;;65.00;41.55;;;;;;;13.57;54.47;101948.69;5038966;28;19913;-78
2022/03/17 10:06:29;;;;;;;59.45;33.42;;;;;;;13.47;54.98;101940.72;5037967;28;20417;-78
2022/03/17 10:09:15;;;;;;;58.95;32.53;;;;;;;13.68;54.50;101939.19;5035916;28;20045;-79
2022/03/17 10:12:03;;;;;;;341.15;51.50;;;;;;;13.85;53.92;101937.75;5036081;28;20041;-78
2022/03/17 10:14:53;;;;;;;72.82;42.42;;;;;;;13.64;54.58;101929.97;5035885;28;20041;-78
2022/03/17 10:17:39;;;;;;;70.35;41.88;;;;;;;13.98;53.70;101934.16;5040036;28;20049;-78
2022/03/17 10:20:27;;;;;;;70.65;42.25;;;;;;;14.01;53.71;101930.81;5024368;28;20053;-78
2022/03/17 10:23:12;;;;;;;70.80;40.78;;;;;;;14.26;52.76;101934.88;5020900;28;20421;-78
2022/03/17 10:25:57;;;;;;;74.05;42.42;;;;;;;14.33;52.36;101938.78;5047316;28;20048;-77
2022/03/17 10:28:42;;;;;;;60.75;32.00;;;;;;;14.22;52.83;101929.19;5047260;28;20414;-78
2022/03/17 10:31:27;;;;;;;57.88;32.38;;;;;;;14.44;52.16;101929.25;5036261;28;20045;-78
2022/03/17 10:34:12;;;;;;;53.00;30.90;;;;;;;14.69;51.33;101930.53;5020531;28;20422;-78
2022/03/17 10:37:07;;;;;;;67.57;41.30;;;;;;;14.72;51.02;101929.13;5037204;28;20041;-77
2022/03/17 10:39:54;;;;;;;52.77;31.60;;;;;;;14.61;51.68;101933.22;5034701;28;20049;-78
2022/03/17 10:42:39;;;;;;;65.25;39.15;;;;;;;15.02;50.64;101925.56;5034093;28;20795;-79
2022/03/17 10:45:28;;;;;;;75.72;42.28;;;;;;;15.12;50.33;101928.03;5036469;28;20041;-78
2022/03/17 10:48:13;;;;;;;71.50;42.28;;;;;;;15.24;49.78;101930.16;5032257;28;20041;-77
2022/03/17 10:50:58;;;;;;;70.18;41.25;;;;;;;15.34;49.46;101927.13;5038548;28;20130;-78
2022/03/17 10:53:43;;;;;;;53.42;30.67;;;;;;;15.28;49.47;101925.69;5026685;28;20113;-78
2022/03/17 10:56:28;;;;;;;;;;;;;;;15.14;49.43;101928.50;5025125;28;20044;-77
2022/03/17 10:59:17;;;;;;;93.03;47.60;;;;;;;15.19;49.71;101927.56;5029472;28;19921;-77
2022/03/17 11:02:08;;;;;;;76.38;42.30;;;;;;;15.00;49.93;101933.28;5033257;28;20033;-77
2022/03/17 11:04:52;;;;;;;76.22;42.95;;;;;;;15.26;49.25;101923.25;5027057;28;20033;-77
2022/03/17 11:07:38;;;;;;;69.97;42.03;;;;;;;15.05;49.71;101924.94;5025104;28;20486;-78
2022/03/17 11:10:24;;;;;;;68.28;40.65;;;;;;;15.44;48.90;101920.56;5024309;28;20038;-77
2022/03/17 11:13:11;;;;;;;75.05;40.78;;;;;;;15.62;48.28;101919.50;5030244;28;20545;-77
2022/03/17 11:16:07;;;;;;;62.67;37.67;;;;;;;15.51;48.30;101919.00;5033190;28;20509;-77
2022/03/17 11:18:54;;;;;;;67.72;40.05;;;;;;;15.61;48.53;101918.69;5028100;28;20052;-77
2022/03/17 11:21:43;;;;;;;68.20;40.55;;;;;;;15.85;47.74;101920.97;5040209;28;20448;-78
2022/03/17 11:24:28;;;;;;;58.92;38.00;;;;;;;15.59;47.72;101912.75;5030466;28;20524;-77
2022/03/17 11:27:14;;;;;;;74.07;37.85;;;;;;;15.60;48.06;101913.50;5039298;28;20060;-78
2022/03/17 11:30:06;;;;;;;63.05;38.97;;;;;;;15.81;47.52;101912.59;5013187;28;20042;-78
2022/03/17 11:32:56;;;;;;;73.72;39.47;;;;;;;15.90;47.39;101912.59;5013550;28;20049;-78
2022/03/17 11:35:41;;;;;;;73.95;38.80;;;;;;;15.82;47.33;101907.91;5036980;22;20054;-75
2022/03/17 11:38:30;;;;;;;;;;;;;;;15.96;46.78;101911.31;5007792;28;20052;-75
2022/03/17 11:41:21;;;;;;;70.82;38.90;;;;;;;15.80;47.20;101899.19;5012917;28;19913;-75
2022/03/17 11:44:06;;;;;;;64.55;37.35;;;;;;;15.84;47.09;101900.19;5012661;28;20061;-75
2022/03/17 11:46:51;;;;;;;65.57;37.88;;;;;;;15.97;46.99;101895.66;5013604;28;20038;-74
2022/03/17 11:49:44;;;;;;;;;;;;;;;16.09;46.72;101895.84;5016694;28;20052;-74
2022/03/17 11:52:29;;;;;;;54.28;32.67;;;;;;;16.27;45.22;101900.97;5012832;28;19913;-75
2022/03/17 11:55:33;;;;;;;66.25;36.70;;;;;;;16.31;45.73;101900.31;5026238;28;20061;-75
2022/03/17 11:58:26;;;;;;;61.88;34.50;;;;;;;16.66;45.14;101896.41;5012691;28;20045;-75
2022/03/17 12:01:11;;;;;;;61.83;32.65;;;;;;;16.48;44.61;101903.84;5026701;28;20056;-75
2022/03/17 12:04:03;;;;;;;56.65;34.47;;;;;;;16.56;44.33;101896.72;5011375;28;20041;-75
2022/03/17 12:06:53;;;;;;;69.10;37.13;;;;;;;16.41;44.82;101891.75;5030844;28;20049;-75
2022/03/17 12:09:38;;;;;;;71.45;36.83;;;;;;;16.37;44.82;101885.28;5012443;28;20045;-76
2022/03/17 12:12:25;;;;;;;;;;;;;;;16.38;44.74;101884.16;5013879;28;20052;-75
2022/03/17 12:15:12;;;;;;;55.42;27.83;;;;;;;16.19;43.10;101879.03;5013551;28;19914;-76
2022/03/17 12:18:16;;;;;;;45.92;26.63;;;;;;;15.87;43.08;101877.59;5013577;28;20038;-76
2022/03/17 12:21:01;;;;;;;40.38;24.20;;;;;;;16.10;41.57;101870.00;5018530;28;20045;-76
2022/03/17 12:23:47;;;;;;;39.42;24.55;;;;;;;15.98;41.95;101867.91;5015891;28;20037;-76
2022/03/17 12:26:32;;;;;;;45.25;22.00;;;;;;;16.21;40.37;101872.06;5012534;28;20044;-76
2022/03/17 12:29:26;;;;;;;41.92;24.95;;;;;;;16.52;41.20;101862.81;5016309;28;20509;-75
2022/03/17 12:32:15;;;;;;;35.35;22.13;;;;;;;16.65;39.74;101864.59;5013194;28;20041;-76
2022/03/17 12:35:02;;;;;;;28.45;15.80;;;;;;;16.59;38.08;101857.66;5009171;28;20038;-75
2022/03/17 12:37:47;;;;;;;28.48;16.98;;;;;;;16.17;38.10;101853.84;5011378;28;20045;-75
2022/03/17 12:40:43;;;;;;;568.08;41.78;;;;;;;16.63;37.96;101842.94;5009194;28;20488;-76
2022/03/17 12:43:34;;;;;;;28.83;14.77;;;;;;;16.50;37.57;101851.38;5014189;28;20050;-76
2022/03/17 12:46:19;;;;;;;23.75;13.90;;;;;;;16.16;37.11;101850.28;4997365;28;20034;-76
2022/03/17 12:49:07;;;;;;;;;;;;;;;16.61;36.56;101850.69;4992715;28;20068;-74
2022/03/17 12:51:51;;;;;;;24.95;14.38;;;;;;;16.46;36.22;101839.41;5006123;28;19914;-75
2022/03/17 12:54:36;;;;;;;;;;;;;;;16.34;36.84;101836.53;5012230;28;20501;-75
2022/03/17 12:57:24;;;;;;;22.55;13.07;;;;;;;16.08;36.59;101839.34;5004707;28;19913;-75